Elko Regional Airport
KEKO : now visible

Airfield :











YOU CAN JOIN US ON...

 
LOGIN :

Register | Disclaimer

   EN    FR    IT 

 









Legend :    VFR   Marginal VFR   IFR   Intensive IFR   Very Intensive IFR
Visi :
Ceiling :
>= 8 km
>= 3000ft
5 to 8 km
1000 to 3000 ft
1500m to 5 km
500 to 1000 ft
800 to 1500m
200 to 500 ft
< 800m
< 200 ft
Symbols :   Thunderstorms  Fog  Heavy snow  Heavy precipitations  Wind > 20 kt






- Airport Elevation : 5140 ft
- IATA code : EKO


KEKO - Elko Regional

CURRENT METAR :
  • 232356Z AUTO 22010G18KT 10SM -RA OVC035 07/03 A2988 RMK AO2 RAB48 SLP111 P0000 60000 T00720028 10089 20056 53002

EXPIRED METARs :
  • 232256Z AUTO 23008KT 10SM BKN042 OVC055 08/02 A2988 RMK AO2 SLP109 T00830017
  • 232156Z AUTO 21010KT 10SM FEW026 OVC055 08/02 A2988 RMK AO2 SLP105 T00830017

TAF KEKO
Valid from the 24 at 00:00 until the 25 at 00:00 UTC


232355Z 2400/2424 24008KT P6SM VCSH SCT030 OVC050
TEMPO 2400/2404 6SM -RA
FM240900 VRB06KT P6SM SCT050 BKN070
FM241500 10009KT 4SM -RA OVC050
FM242000 14011G18KT P6SM VCSH OVC050
KZLC FIR / North America



MET'MAP, your aeronautical weather chart ! - Copyright ORBIFLY December 2007 - Disclaimer

ORBIFLY MET'MAP TEAM :

Programming & Development : Alexandra Zaïnal
Concept & original design : Baudouin d'Aumeries
Assistance for programming : Marc-Olivier Méhu
Technical & hardware support : Manuel Goepfert

Contact : metmap@orbifly.com




SOURCES & CREDITS :

   NOAA       Earth
Advisory